MTS Valour — MPVV8 — position and weather

sailwx.info

Track history (hours):
 
Tides and Currents Weather Stations Pressure Air Temp Water Temp Dewpoint Dewpoint Depression Visibility Wind Speed Wind Dir Waves Ship Positions

MTS Valour

Last reported at 2017-Nov-18 12:00 UTC. Time now 2017-Nov-19 04:58 UTC.
Position N 54°07' E 008°52'.

Length 24 m; draft 2.3 m.

Type: Tug. MMSI: 235040596.

Date/timePositionNaut miles runAvg speedWind from/ knotsBaromVisibWave heightAir tempDewpointWater temp
2017-Nov-18 12:00N 54°07' E 008°52'0 0.0
2017-Nov-18 11:30N 54°07' E 008°52'0 0.0
2017-Nov-17 09:41N 54°07' E 008°52'6 4.6
2017-Nov-17 08:26N 54°08' E 008°42'2 2.4
2017-Nov-17 07:26N 54°08' E 008°46'0 0.0
2017-Nov-17 05:49N 54°08' E 008°46'0 0.0
2017-Nov-17 04:57N 54°08' E 008°46'0 0.0
2017-Nov-17 04:29N 54°08' E 008°46'0 0.0
2017-Nov-17 04:00N 54°08' E 008°46'0 0.0
2017-Nov-17 01:46N 54°08' E 008°46'0 0.0
2017-Nov-17 01:30N 54°08' E 008°46'0 0.0
2017-Nov-17 00:59N 54°08' E 008°46'0 0.0
2017-Nov-17 00:24N 54°08' E 008°46'0 0.0
2017-Nov-17 00:00N 54°08' E 008°46'0 0.1
2017-Nov-16 23:30N 54°08' E 008°46'0 0.0
2017-Nov-16 23:00N 54°08' E 008°46'0 0.0
2017-Nov-16 22:30N 54°08' E 008°46'0 0.0
2017-Nov-16 22:00N 54°08' E 008°46'0 0.0
2017-Nov-16 21:30N 54°08' E 008°46'0 0.1
2017-Nov-16 21:01N 54°08' E 008°46'2 2.7
2017-Nov-16 20:13N 54°08' E 008°42'1 0.1
2017-Nov-16 10:25N 54°09' E 008°41'0 0.0
2017-Nov-16 09:58N 54°09' E 008°41'0 0.0
2017-Nov-16 09:29N 54°09' E 008°41'0 0.0
2017-Nov-16 06:28N 54°09' E 008°41'0 0.0
2017-Nov-16 05:03N 54°09' E 008°41'0 0.0
2017-Nov-16 04:54N 54°09' E 008°41'0 0.0
2017-Nov-16 04:30N 54°09' E 008°41'0 0.0
2017-Nov-16 03:55N 54°09' E 008°41'0 0.0
2017-Nov-16 03:30N 54°09' E 008°41'0 0.0
2017-Nov-15 21:20N 54°09' E 008°41'0 0.0
2017-Nov-15 19:41N 54°09' E 008°41'0 0.0
2017-Nov-15 19:29N 54°09' E 008°41'0 0.0
2017-Nov-15 17:45N 54°09' E 008°41'0 0.0
2017-Nov-15 17:28N 54°09' E 008°41'0 0.0
2017-Nov-15 16:59N 54°09' E 008°41'0 0.0
2017-Nov-15 16:30N 54°09' E 008°41'0 0.0
2017-Nov-15 16:00N 54°09' E 008°41'0 0.0
2017-Nov-15 15:30N 54°09' E 008°41'0 0.0
2017-Nov-15 14:57N 54°09' E 008°41'0 0.0
2017-Nov-15 14:30N 54°09' E 008°41'0 0.0
2017-Nov-15 14:00N 54°09' E 008°41'0 0.0
2017-Nov-15 13:00N 54°09' E 008°41'0 0.0
2017-Nov-15 09:51N 54°09' E 008°41'0 0.0
2017-Nov-15 09:30N 54°09' E 008°41'0 0.0
2017-Nov-15 08:52N 54°09' E 008°41'0 0.5
2017-Nov-15 08:30N 54°09' E 008°41'1 0.1
2017-Nov-14 20:56N 54°09' E 008°43'0 0.5
2017-Nov-14 20:26N 54°09' E 008°44'5 1.9
2017-Nov-14 17:59N 54°07' E 008°51'0 0.0
2017-Nov-13 23:40N 54°07' E 008°52'0 2.9
2017-Nov-13 23:30N 54°08' E 008°52'0 0.9
2017-Nov-13 23:00N 54°07' E 008°52'5 0.2
2017-Nov-13 02:00N 54°09' E 008°44'0 0.0
2017-Nov-12 23:42N 54°09' E 008°44'0 0.0
2017-Nov-12 23:24N 54°09' E 008°44'0 0.0
2017-Nov-12 17:43N 54°09' E 008°44'0 0.2
2017-Nov-12 17:21N 54°09' E 008°44'0 0.1
2017-Nov-12 17:00N 54°09' E 008°44'5 3.1
2017-Nov-12 15:31N 54°07' E 008°51'0 2.5
2017-Nov-12 15:29N 54°07' E 008°52'0 0.0
2017-Nov-12 04:10N 54°07' E 008°52'0 0.0
2017-Nov-12 03:46N 54°07' E 008°52'0 0.0
2017-Nov-12 02:10N 54°07' E 008°52'0 0.0
2017-Nov-12 01:58N 54°07' E 008°52'0 0.0
2017-Nov-12 00:34N 54°07' E 008°52'0 0.0
2017-Nov-11 21:58N 54°07' E 008°52'0 0.0
2017-Nov-11 21:28N 54°07' E 008°52'0 0.0
2017-Nov-11 20:58N 54°07' E 008°52'0 0.0
2017-Nov-11 19:19N 54°07' E 008°52'0 0.0
2017-Nov-11 18:55N 54°07' E 008°52'0 0.0
2017-Nov-11 18:28N 54°07' E 008°52'0 0.0
2017-Nov-11 17:58N 54°07' E 008°52'0 0.0
2017-Nov-11 17:25N 54°07' E 008°52'0 0.0
2017-Nov-11 16:55N 54°07' E 008°52'0 0.0
2017-Nov-11 16:25N 54°07' E 008°52'0 0.0
2017-Nov-11 08:43N 54°07' E 008°52'0 0.0
2017-Nov-11 08:22N 54°07' E 008°52'0 0.0
2017-Nov-11 07:58N 54°07' E 008°52'0 0.0
2017-Nov-11 07:25N 54°07' E 008°52'0 0.0
2017-Nov-11 06:04N 54°07' E 008°52'0 0.0
2017-Nov-11 05:49N 54°07' E 008°52'0 0.0
2017-Nov-11 05:19N 54°07' E 008°52'0 0.0
2017-Nov-11 04:58N 54°08' E 008°52'0 0.0
2017-Nov-11 04:19N 54°07' E 008°52'0 0.0
2017-Nov-11 03:55N 54°07' E 008°52'0 0.0
2017-Nov-11 03:28N 54°07' E 008°52'0 0.0
2017-Nov-11 02:55N 54°07' E 008°52'0 0.0
2017-Nov-11 02:28N 54°07' E 008°52'0 0.0
2017-Nov-11 01:55N 54°07' E 008°52'0 0.0
2017-Nov-11 01:25N 54°07' E 008°52'0 0.0
2017-Nov-11 00:22N 54°07' E 008°52'0 0.0
2017-Nov-10 23:34N 54°07' E 008°52'0 0.0
2017-Nov-10 23:10N 54°07' E 008°52'0 0.0
2017-Nov-10 22:49N 54°07' E 008°52'0 0.0
2017-Nov-10 21:16N 54°07' E 008°52'0 0.0
2017-Nov-10 20:13N 54°07' E 008°52'0 0.0
2017-Nov-10 19:40N 54°07' E 008°52'0 0.0
2017-Nov-10 17:49N 54°07' E 008°52'0 0.0
2017-Nov-10 00:46N 54°07' E 008°52'0 0.0
2017-Nov-10 00:25N 54°07' E 008°52'0 0.0
2017-Nov-09 23:07N 54°07' E 008°52'0 0.0
2017-Nov-09 22:58N 54°08' E 008°52'0 0.0
2017-Nov-09 03:58N 54°07' E 008°52'0 0.0
2017-Nov-09 03:28N 54°07' E 008°52'0 0.5
2017-Nov-09 03:00N 54°07' E 008°52'0 0.3
2017-Nov-09 02:27N 54°07' E 008°52'3 4.7
2017-Nov-09 01:45N 54°08' E 008°46'1 1.9
2017-Nov-09 01:17N 54°09' E 008°45'1 1.7
2017-Nov-09 00:52N 54°08' E 008°44'0 0.2
2017-Nov-09 00:27N 54°09' E 008°44'0 0.0
2017-Nov-09 00:00N 54°09' E 008°44'  
Track history (hours):
 
Tides and Currents Weather Stations Pressure Air Temp Water Temp Dewpoint Dewpoint Depression Visibility Wind Speed Wind Dir Waves Ship Positions

MTS Valour

Last reported at 2017-Nov-18 12:00 UTC. Time now 2017-Nov-19 04:58 UTC.
Position N 54°07' E 008°52'.

Length 24 m; draft 2.3 m.

Type: Tug. MMSI: 235040596.

Date/timePositionNaut miles runAvg speedWind from/ knotsBaromVisibWave heightAir tempDewpointWater temp
2017-Nov-18 12:00N 54°07' E 008°52'0 0.0
2017-Nov-18 11:30N 54°07' E 008°52'0 0.0
2017-Nov-17 09:41N 54°07' E 008°52'6 4.6
2017-Nov-17 08:26N 54°08' E 008°42'2 2.4
2017-Nov-17 07:26N 54°08' E 008°46'0 0.0
2017-Nov-17 05:49N 54°08' E 008°46'0 0.0
2017-Nov-17 04:57N 54°08' E 008°46'0 0.0
2017-Nov-17 04:29N 54°08' E 008°46'0 0.0
2017-Nov-17 04:00N 54°08' E 008°46'0 0.0
2017-Nov-17 01:46N 54°08' E 008°46'0 0.0
2017-Nov-17 01:30N 54°08' E 008°46'0 0.0
2017-Nov-17 00:59N 54°08' E 008°46'0 0.0
2017-Nov-17 00:24N 54°08' E 008°46'0 0.0
2017-Nov-17 00:00N 54°08' E 008°46'0 0.1
2017-Nov-16 23:30N 54°08' E 008°46'0 0.0
2017-Nov-16 23:00N 54°08' E 008°46'0 0.0
2017-Nov-16 22:30N 54°08' E 008°46'0 0.0
2017-Nov-16 22:00N 54°08' E 008°46'0 0.0
2017-Nov-16 21:30N 54°08' E 008°46'0 0.1
2017-Nov-16 21:01N 54°08' E 008°46'2 2.7
2017-Nov-16 20:13N 54°08' E 008°42'1 0.1
2017-Nov-16 10:25N 54°09' E 008°41'0 0.0
2017-Nov-16 09:58N 54°09' E 008°41'0 0.0
2017-Nov-16 09:29N 54°09' E 008°41'0 0.0
2017-Nov-16 06:28N 54°09' E 008°41'0 0.0
2017-Nov-16 05:03N 54°09' E 008°41'0 0.0
2017-Nov-16 04:54N 54°09' E 008°41'0 0.0
2017-Nov-16 04:30N 54°09' E 008°41'0 0.0
2017-Nov-16 03:55N 54°09' E 008°41'0 0.0
2017-Nov-16 03:30N 54°09' E 008°41'0 0.0
2017-Nov-15 21:20N 54°09' E 008°41'0 0.0
2017-Nov-15 19:41N 54°09' E 008°41'0 0.0
2017-Nov-15 19:29N 54°09' E 008°41'0 0.0
2017-Nov-15 17:45N 54°09' E 008°41'0 0.0
2017-Nov-15 17:28N 54°09' E 008°41'0 0.0
2017-Nov-15 16:59N 54°09' E 008°41'0 0.0
2017-Nov-15 16:30N 54°09' E 008°41'0 0.0
2017-Nov-15 16:00N 54°09' E 008°41'0 0.0
2017-Nov-15 15:30N 54°09' E 008°41'0 0.0
2017-Nov-15 14:57N 54°09' E 008°41'0 0.0
2017-Nov-15 14:30N 54°09' E 008°41'0 0.0
2017-Nov-15 14:00N 54°09' E 008°41'0 0.0
2017-Nov-15 13:00N 54°09' E 008°41'0 0.0
2017-Nov-15 09:51N 54°09' E 008°41'0 0.0
2017-Nov-15 09:30N 54°09' E 008°41'0 0.0
2017-Nov-15 08:52N 54°09' E 008°41'0 0.5
2017-Nov-15 08:30N 54°09' E 008°41'1 0.1
2017-Nov-14 20:56N 54°09' E 008°43'0 0.5
2017-Nov-14 20:26N 54°09' E 008°44'5 1.9
2017-Nov-14 17:59N 54°07' E 008°51'0 0.0
2017-Nov-13 23:40N 54°07' E 008°52'0 2.9
2017-Nov-13 23:30N 54°08' E 008°52'0 0.9
2017-Nov-13 23:00N 54°07' E 008°52'5 0.2
2017-Nov-13 02:00N 54°09' E 008°44'0 0.0
2017-Nov-12 23:42N 54°09' E 008°44'0 0.0
2017-Nov-12 23:24N 54°09' E 008°44'0 0.0
2017-Nov-12 17:43N 54°09' E 008°44'0 0.2
2017-Nov-12 17:21N 54°09' E 008°44'0 0.1
2017-Nov-12 17:00N 54°09' E 008°44'5 3.1
2017-Nov-12 15:31N 54°07' E 008°51'0 2.5
2017-Nov-12 15:29N 54°07' E 008°52'0 0.0
2017-Nov-12 04:10N 54°07' E 008°52'0 0.0
2017-Nov-12 03:46N 54°07' E 008°52'0 0.0
2017-Nov-12 02:10N 54°07' E 008°52'0 0.0
2017-Nov-12 01:58N 54°07' E 008°52'0 0.0
2017-Nov-12 00:34N 54°07' E 008°52'0 0.0
2017-Nov-11 21:58N 54°07' E 008°52'0 0.0
2017-Nov-11 21:28N 54°07' E 008°52'0 0.0
2017-Nov-11 20:58N 54°07' E 008°52'0 0.0
2017-Nov-11 19:19N 54°07' E 008°52'0 0.0
2017-Nov-11 18:55N 54°07' E 008°52'0 0.0
2017-Nov-11 18:28N 54°07' E 008°52'0 0.0
2017-Nov-11 17:58N 54°07' E 008°52'0 0.0
2017-Nov-11 17:25N 54°07' E 008°52'0 0.0
2017-Nov-11 16:55N 54°07' E 008°52'0 0.0
2017-Nov-11 16:25N 54°07' E 008°52'0 0.0
2017-Nov-11 08:43N 54°07' E 008°52'0 0.0
2017-Nov-11 08:22N 54°07' E 008°52'0 0.0
2017-Nov-11 07:58N 54°07' E 008°52'0 0.0
2017-Nov-11 07:25N 54°07' E 008°52'0 0.0
2017-Nov-11 06:04N 54°07' E 008°52'0 0.0
2017-Nov-11 05:49N 54°07' E 008°52'0 0.0
2017-Nov-11 05:19N 54°07' E 008°52'0 0.0
2017-Nov-11 04:58N 54°08' E 008°52'0 0.0
2017-Nov-11 04:19N 54°07' E 008°52'0 0.0
2017-Nov-11 03:55N 54°07' E 008°52'0 0.0
2017-Nov-11 03:28N 54°07' E 008°52'0 0.0
2017-Nov-11 02:55N 54°07' E 008°52'0 0.0
2017-Nov-11 02:28N 54°07' E 008°52'0 0.0
2017-Nov-11 01:55N 54°07' E 008°52'0 0.0
2017-Nov-11 01:25N 54°07' E 008°52'0 0.0
2017-Nov-11 00:22N 54°07' E 008°52'0 0.0
2017-Nov-10 23:34N 54°07' E 008°52'0 0.0
2017-Nov-10 23:10N 54°07' E 008°52'0 0.0
2017-Nov-10 22:49N 54°07' E 008°52'0 0.0
2017-Nov-10 21:16N 54°07' E 008°52'0 0.0
2017-Nov-10 20:13N 54°07' E 008°52'0 0.0
2017-Nov-10 19:40N 54°07' E 008°52'0 0.0
2017-Nov-10 17:49N 54°07' E 008°52'0 0.0
2017-Nov-10 00:46N 54°07' E 008°52'0 0.0
2017-Nov-10 00:25N 54°07' E 008°52'0 0.0
2017-Nov-09 23:07N 54°07' E 008°52'0 0.0
2017-Nov-09 22:58N 54°08' E 008°52'0 0.0
2017-Nov-09 03:58N 54°07' E 008°52'0 0.0
2017-Nov-09 03:28N 54°07' E 008°52'0 0.5
2017-Nov-09 03:00N 54°07' E 008°52'0 0.3
2017-Nov-09 02:27N 54°07' E 008°52'3 4.7
2017-Nov-09 01:45N 54°08' E 008°46'1 1.9
2017-Nov-09 01:17N 54°09' E 008°45'1 1.7
2017-Nov-09 00:52N 54°08' E 008°44'0 0.2
2017-Nov-09 00:27N 54°09' E 008°44'0 0.0
2017-Nov-09 00:00N 54°09' E 008°44'  

Dump ship's entire track history